Time;durP1;ratioP1;P1;durP2;ratioP2;P2;SDS_P1;SDS_P2;PMS_P1;PMS_P2;Temp;Humidity;BMP_temperature;BMP_pressure;BME280_temperature;BME280_humidity;BME280_pressure;Samples;Min_cycle;Max_cycle;Signal;HPM_P1;HPM_P2
2022/12/04 00:00:40;;;;;;;18.80;10.68;;;;;;;;;;4995511;28;20025;-66
2022/12/04 00:03:06;;;;;;;20.65;11.07;;;;;;;;;;4992771;28;20103;-66
2022/12/04 00:05:32;;;;;;;22.63;12.18;;;;;;;;;;4996516;28;20033;-66
2022/12/04 00:07:58;;;;;;;23.75;14.02;;;;;;;;;;4991846;28;20505;-66
2022/12/04 00:10:24;;;;;;;22.80;13.20;;;;;;;;;;4997775;28;20036;-67
2022/12/04 00:12:51;;;;;;;20.38;12.23;;;;;;;;;;4989742;28;20383;-67
2022/12/04 00:15:17;;;;;;;;;;;;;;;;;;4999876;28;20057;-66
2022/12/04 00:17:46;;;;;;;18.67;11.75;;;;;;;;;;4998803;28;20359;-67
2022/12/04 00:20:12;;;;;;;21.52;10.68;;;;;;;;;;4995145;28;20409;-67
2022/12/04 00:22:42;;;;;;;18.13;10.65;;;;;;;;;;4998815;28;20037;-68
2022/12/04 00:25:08;;;;;;;17.45;9.23;;;;;;;;;;5009011;28;20034;-68
2022/12/04 00:27:34;;;;;;;19.63;9.13;;;;;;;;;;4996930;28;20034;-66
2022/12/04 00:30:01;;;;;;;20.65;8.73;;;;;;;;;;4992699;28;21079;-66
2022/12/04 00:32:27;;;;;;;15.93;8.40;;;;;;;;;;4992398;28;20355;-66
2022/12/04 00:34:53;;;;;;;15.70;8.50;;;;;;;;;;4990519;28;20065;-66
2022/12/04 00:37:19;;;;;;;14.90;7.38;;;;;;;;;;4993567;28;20037;-66
2022/12/04 00:39:45;;;;;;;15.70;9.05;;;;;;;;;;4994854;28;20038;-66
2022/12/04 00:42:11;;;;;;;16.67;7.88;;;;;;;;;;4990270;28;20403;-67
2022/12/04 00:44:37;;;;;;;15.38;7.65;;;;;;;;;;4996491;28;20018;-67
2022/12/04 00:47:04;;;;;;;14.18;7.53;;;;;;;;;;4990891;28;20033;-67
2022/12/04 00:49:30;;;;;;;18.48;8.02;;;;;;;;;;4994244;28;20486;-66
2022/12/04 00:51:57;;;;;;;15.43;8.82;;;;;;;;;;4990524;28;20057;-66
2022/12/04 00:54:23;;;;;;;16.77;9.57;;;;;;;;;;4995581;28;20039;-66
2022/12/04 00:56:49;;;;;;;15.68;9.35;;;;;;;;;;4993075;28;20142;-66
2022/12/04 00:59:15;;;;;;;16.42;9.10;;;;;;;;;;4996189;28;20120;-66
2022/12/04 01:01:41;;;;;;;14.55;8.32;;;;;;;;;;4994710;28;20029;-66
2022/12/04 01:04:07;;;;;;;14.85;8.32;;;;;;;;;;4992856;28;20033;-66
2022/12/04 01:06:34;;;;;;;14.40;7.22;;;;;;;;;;4996499;28;20030;-66
2022/12/04 01:09:01;;;;;;;15.40;7.28;;;;;;;;;;4990377;28;20400;-66
2022/12/04 01:11:27;;;;;;;12.77;6.75;;;;;;;;;;4995711;28;20029;-66
2022/12/04 01:13:54;;;;;;;14.45;7.45;;;;;;;;;;4992873;28;20029;-66
2022/12/04 01:16:22;;;;;;;15.73;5.65;;;;;;;;;;4996138;28;20479;-67
2022/12/04 01:18:48;;;;;;;13.32;6.13;;;;;;;;;;4995963;28;20475;-66
2022/12/04 01:21:15;;;;;;;13.80;5.88;;;;;;;;;;4989901;28;20202;-67
2022/12/04 01:23:41;;;;;;;;;;;;;;;;;;4992813;28;20044;-67
2022/12/04 01:26:07;;;;;;;12.70;6.47;;;;;;;;;;4992009;28;19917;-67
2022/12/04 01:28:33;;;;;;;12.57;6.20;;;;;;;;;;5010117;28;20044;-66
2022/12/04 01:31:04;;;;;;;13.15;6.68;;;;;;;;;;4992818;28;20796;-67
2022/12/04 01:33:31;;;;;;;14.20;6.78;;;;;;;;;;4992612;28;20361;-67
2022/12/04 01:35:58;;;;;;;13.05;6.90;;;;;;;;;;4990216;28;20431;-67
2022/12/04 01:38:25;;;;;;;17.88;8.45;;;;;;;;;;4997621;28;20033;-66
2022/12/04 01:40:51;;;;;;;16.00;8.32;;;;;;;;;;4994116;28;20558;-66
2022/12/04 01:43:17;;;;;;;;;;;;;;;;;;4997736;28;20281;-66
2022/12/04 01:45:46;;;;;;;16.75;9.27;;;;;;;;;;4996278;28;20635;-66
2022/12/04 01:48:21;;;;;;;15.02;8.00;;;;;;;;;;4990023;28;20056;-67
2022/12/04 01:50:49;;;;;;;14.07;7.05;;;;;;;;;;4991232;28;20487;-67
2022/12/04 01:53:16;;;;;;;12.68;7.28;;;;;;;;;;4995812;28;20132;-67
2022/12/04 01:55:43;;;;;;;14.18;6.93;;;;;;;;;;4996923;28;20135;-67
2022/12/04 01:58:09;;;;;;;11.55;6.47;;;;;;;;;;4996911;28;20632;-67
2022/12/04 02:00:35;;;;;;;;;;;;;;;;;;5001390;28;20828;-67
2022/12/04 02:03:02;;;;;;;11.80;6.40;;;;;;;;;;5010082;28;19924;-67
2022/12/04 02:05:28;;;;;;;12.02;6.13;;;;;;;;;;4997903;28;20029;-67
2022/12/04 02:07:57;;;;;;;12.70;6.80;;;;;;;;;;4993932;28;20037;-67
2022/12/04 02:10:27;;;;;;;13.55;6.60;;;;;;;;;;4999464;28;20052;-67
2022/12/04 02:13:01;;;;;;;15.45;8.35;;;;;;;;;;4993865;28;21056;-67
2022/12/04 02:15:31;;;;;;;14.07;6.53;;;;;;;;;;5015392;28;20444;-67
2022/12/04 02:18:14;;;;;;;12.10;6.43;;;;;;;;;;4993982;28;20033;-67
2022/12/04 02:20:43;;;;;;;11.52;5.18;;;;;;;;;;4998144;28;20037;-67
2022/12/04 02:23:28;;;;;;;12.35;5.03;;;;;;;;;;4997404;28;20029;-66
2022/12/04 02:26:13;;;;;;;11.77;4.32;;;;;;;;;;4995818;28;20041;-66
2022/12/04 02:28:51;;;;;;;10.80;4.82;;;;;;;;;;5000001;28;20029;-66
2022/12/04 02:31:25;;;;;;;13.85;4.43;;;;;;;;;;4997563;28;20120;-66
2022/12/04 02:33:56;;;;;;;9.18;3.30;;;;;;;;;;4994878;28;20494;-66
2022/12/04 02:36:25;;;;;;;10.40;3.80;;;;;;;;;;5000343;28;20528;-66
2022/12/04 02:38:54;;;;;;;8.35;3.55;;;;;;;;;;4995591;28;20490;-66
2022/12/04 02:41:27;;;;;;;14.27;4.30;;;;;;;;;;4998281;28;20649;-66
2022/12/04 02:44:01;;;;;;;10.65;3.30;;;;;;;;;;4995974;28;20140;-65
2022/12/04 02:46:29;;;;;;;9.60;2.92;;;;;;;;;;4994796;28;20451;-65
2022/12/04 02:49:01;;;;;;;11.02;3.75;;;;;;;;;;4992479;28;20430;-65
2022/12/04 02:51:30;;;;;;;10.75;3.55;;;;;;;;;;4998098;28;20100;-65
2022/12/04 02:53:58;;;;;;;10.18;3.40;;;;;;;;;;4992485;28;20029;-66
2022/12/04 02:56:26;;;;;;;11.15;3.13;;;;;;;;;;4998639;28;20034;-66
2022/12/04 02:58:54;;;;;;;8.27;2.83;;;;;;;;;;4992072;28;20034;-66
2022/12/04 03:01:24;;;;;;;8.63;3.03;;;;;;;;;;4995275;28;20099;-66
2022/12/04 03:03:56;;;;;;;9.10;3.30;;;;;;;;;;4996001;28;20095;-65
2022/12/04 03:06:23;;;;;;;11.10;3.38;;;;;;;;;;4996035;28;20029;-66
2022/12/04 03:08:52;;;;;;;11.32;3.80;;;;;;;;;;5009892;28;20112;-65
2022/12/04 03:11:18;;;;;;;8.18;3.35;;;;;;;;;;4997296;28;20025;-65
2022/12/04 03:13:44;;;;;;;;;;;;;;;;;;4994912;28;20049;-64
2022/12/04 03:16:15;;;;;;;8.27;3.60;;;;;;;;;;4992132;28;20364;-65
2022/12/04 03:18:43;;;;;;;9.40;3.47;;;;;;;;;;4998066;28;20152;-65
2022/12/04 03:21:11;;;;;;;10.68;3.90;;;;;;;;;;4989611;28;20033;-66
2022/12/04 03:23:44;;;;;;;9.43;3.65;;;;;;;;;;4995579;28;20899;-65
2022/12/04 03:26:14;;;;;;;9.57;3.47;;;;;;;;;;4994935;28;20029;-65
2022/12/04 03:28:46;;;;;;;8.77;3.30;;;;;;;;;;4997529;28;20342;-65
2022/12/04 03:31:14;;;;;;;8.90;3.55;;;;;;;;;;4990379;28;20041;-68
2022/12/04 03:33:43;;;;;;;9.52;3.65;;;;;;;;;;4998268;28;20684;-65
2022/12/04 03:36:09;;;;;;;10.65;3.38;;;;;;;;;;4993789;28;20037;-65
2022/12/04 03:38:41;;;;;;;8.27;2.90;;;;;;;;;;4994491;28;20036;-65
2022/12/04 03:41:19;;;;;;;9.50;3.03;;;;;;;;;;4993132;28;20048;-65
2022/12/04 03:43:52;;;;;;;10.02;2.90;;;;;;;;;;4997648;28;20834;-65
2022/12/04 03:46:27;;;;;;;9.02;2.65;;;;;;;;;;4996402;28;20184;-64
2022/12/04 03:48:55;;;;;;;8.13;2.67;;;;;;;;;;4993736;28;20138;-65
2022/12/04 03:51:36;;;;;;;7.50;2.78;;;;;;;;;;4999740;28;20108;-68
2022/12/04 03:54:04;;;;;;;7.97;2.65;;;;;;;;;;4993453;28;20444;-66
2022/12/04 03:56:39;;;;;;;7.05;2.63;;;;;;;;;;4995606;28;20022;-65
2022/12/04 03:59:09;;;;;;;8.35;3.00;;;;;;;;;;4990373;28;20495;-65
2022/12/04 04:01:39;;;;;;;7.40;2.47;;;;;;;;;;4996742;28;20038;-66
2022/12/04 04:04:07;;;;;;;7.07;2.50;;;;;;;;;;4989699;28;20511;-65
2022/12/04 04:06:42;;;;;;;8.35;3.00;;;;;;;;;;4998783;28;20448;-65
2022/12/04 04:09:15;;;;;;;7.38;2.63;;;;;;;;;;4993095;28;20439;-65
2022/12/04 04:11:49;;;;;;;7.07;2.00;;;;;;;;;;4998623;28;20037;-66
2022/12/04 04:25:52;;;;;;;7.55;2.40;;;;;;;;;;4995020;28;20375;-64
2022/12/04 04:28:28;;;;;;;7.03;2.25;;;;;;;;;;4996320;28;20061;-65
2022/12/04 04:30:58;;;;;;;6.90;2.53;;;;;;;;;;4993685;28;20415;-65
2022/12/04 04:33:25;;;;;;;6.60;2.60;;;;;;;;;;4997176;28;20037;-65
2022/12/04 04:36:01;;;;;;;7.68;2.60;;;;;;;;;;4993452;28;20339;-65
2022/12/04 04:38:40;;;;;;;7.60;2.40;;;;;;;;;;4996061;28;20026;-67
2022/12/04 04:41:19;;;;;;;7.00;2.40;;;;;;;;;;4992912;28;20056;-67
2022/12/04 04:43:49;;;;;;;6.00;1.83;;;;;;;;;;4997054;28;20025;-67
2022/12/04 04:46:37;;;;;;;7.45;2.35;;;;;;;;;;4996892;28;20703;-67
2022/12/04 04:49:04;;;;;;;8.77;2.55;;;;;;;;;;4995258;28;20035;-65
2022/12/04 04:51:33;;;;;;;7.78;2.60;;;;;;;;;;4996474;28;20037;-67
2022/12/04 04:54:00;;;;;;;6.65;2.45;;;;;;;;;;4993901;28;20037;-67
2022/12/04 04:56:26;;;;;;;9.70;2.70;;;;;;;;;;4996903;28;20033;-65
2022/12/04 04:58:52;;;;;;;7.43;2.72;;;;;;;;;;4990055;28;20379;-66
2022/12/04 05:01:20;;;;;;;8.18;2.67;;;;;;;;;;4995488;28;20041;-65
2022/12/04 05:03:46;;;;;;;6.10;2.47;;;;;;;;;;5010458;28;20045;-66
2022/12/04 05:06:12;;;;;;;6.80;2.30;;;;;;;;;;4991131;28;20029;-65
2022/12/04 05:08:38;;;;;;;6.07;2.13;;;;;;;;;;4997816;28;20029;-66
2022/12/04 05:11:05;;;;;;;6.82;2.58;;;;;;;;;;4994381;28;20030;-65
2022/12/04 05:13:31;;;;;;;;;;;;;;;;;;4994537;28;20483;-65
2022/12/04 05:15:58;;;;;;;6.75;2.03;;;;;;;;;;4992096;28;20028;-67
2022/12/04 05:18:24;;;;;;;5.00;1.73;;;;;;;;;;5007568;28;20123;-65
2022/12/04 05:20:50;;;;;;;;;;;;;;;;;;4992895;28;20531;-65
2022/12/04 05:23:17;;;;;;;4.90;1.98;;;;;;;;;;4995332;28;19917;-68
2022/12/04 05:25:43;;;;;;;8.18;2.25;;;;;;;;;;4995787;28;20649;-65
2022/12/04 05:28:09;;;;;;;5.47;1.67;;;;;;;;;;4993296;28;20088;-66
2022/12/04 05:30:35;;;;;;;5.53;2.08;;;;;;;;;;4998786;28;20463;-65
2022/12/04 05:33:01;;;;;;;6.82;2.28;;;;;;;;;;4997301;28;20078;-65
2022/12/04 05:35:27;;;;;;;6.93;2.30;;;;;;;;;;5004344;28;20592;-66
2022/12/04 05:37:53;;;;;;;8.13;2.78;;;;;;;;;;5005914;28;20370;-66
2022/12/04 05:40:20;;;;;;;8.25;2.85;;;;;;;;;;5000237;28;20533;-64
2022/12/04 05:42:46;;;;;;;8.57;2.90;;;;;;;;;;4999728;28;20793;-65
2022/12/04 05:45:12;;;;;;;8.18;2.92;;;;;;;;;;4994380;28;20453;-64
2022/12/04 05:47:39;;;;;;;7.10;2.78;;;;;;;;;;4999128;28;20375;-64
2022/12/04 05:50:06;;;;;;;8.57;3.15;;;;;;;;;;4997221;28;20037;-64
2022/12/04 05:52:32;;;;;;;10.27;3.00;;;;;;;;;;5000885;28;20415;-64
2022/12/04 05:54:59;;;;;;;7.57;2.65;;;;;;;;;;4998003;28;20033;-64
2022/12/04 05:57:25;;;;;;;7.68;2.80;;;;;;;;;;4999289;28;20041;-64
2022/12/04 05:59:51;;;;;;;7.05;2.55;;;;;;;;;;4993747;28;20668;-65
2022/12/04 06:02:17;;;;;;;6.72;2.63;;;;;;;;;;4999848;28;20037;-64
2022/12/04 06:04:43;;;;;;;6.70;2.70;;;;;;;;;;5000010;28;20029;-63
2022/12/04 06:07:10;;;;;;;9.30;3.20;;;;;;;;;;4996720;28;20044;-66
2022/12/04 06:09:36;;;;;;;7.97;2.72;;;;;;;;;;4998249;28;20441;-65
2022/12/04 06:12:03;;;;;;;7.90;2.67;;;;;;;;;;4991077;28;20033;-64
2022/12/04 06:14:29;;;;;;;7.70;2.75;;;;;;;;;;5000692;28;20065;-64
2022/12/04 06:16:55;;;;;;;10.73;3.20;;;;;;;;;;4995461;28;20037;-64
2022/12/04 06:19:22;;;;;;;7.93;2.90;;;;;;;;;;4998060;28;20443;-64
2022/12/04 06:21:49;;;;;;;7.47;2.67;;;;;;;;;;4995624;28;20431;-64
2022/12/04 06:24:17;;;;;;;7.05;2.75;;;;;;;;;;4998733;28;20506;-64
2022/12/04 06:26:43;;;;;;;7.45;2.70;;;;;;;;;;4998619;28;20052;-64
2022/12/04 06:29:11;;;;;;;7.70;2.85;;;;;;;;;;4996864;28;20641;-64
2022/12/04 06:31:37;;;;;;;7.78;3.22;;;;;;;;;;4998508;28;20057;-64
2022/12/04 06:34:03;;;;;;;8.02;3.13;;;;;;;;;;4994443;28;20060;-64
2022/12/04 06:36:29;;;;;;;8.20;3.15;;;;;;;;;;4998548;28;20774;-64
2022/12/04 06:38:56;;;;;;;7.60;3.13;;;;;;;;;;4991222;28;20068;-64
2022/12/04 06:41:23;;;;;;;8.23;2.80;;;;;;;;;;4997938;28;20116;-64
2022/12/04 06:43:50;;;;;;;9.60;3.08;;;;;;;;;;4996707;28;20513;-64
2022/12/04 06:46:18;;;;;;;9.27;3.35;;;;;;;;;;4996197;28;20485;-65
2022/12/04 06:48:44;;;;;;;8.13;3.45;;;;;;;;;;4998848;28;20033;-64
2022/12/04 06:51:10;;;;;;;;;;;;;;;;;;4995113;28;20040;-64
2022/12/04 06:53:37;;;;;;;8.38;3.08;;;;;;;;;;4999464;28;19920;-65
2022/12/04 06:56:03;;;;;;;;;;;;;;;;;;4993665;28;20048;-64
2022/12/04 06:58:29;;;;;;;8.73;3.03;;;;;;;;;;4999025;28;19917;-65
2022/12/04 07:00:55;;;;;;;8.35;3.22;;;;;;;;;;4992843;28;20195;-65
2022/12/04 07:03:22;;;;;;;9.32;3.20;;;;;;;;;;5010417;28;20037;-65
2022/12/04 07:05:49;;;;;;;8.18;3.53;;;;;;;;;;4997364;28;20026;-65
2022/12/04 07:08:15;;;;;;;8.18;3.28;;;;;;;;;;4993864;28;20128;-65
2022/12/04 07:10:42;;;;;;;8.45;3.17;;;;;;;;;;5008716;28;20380;-66
2022/12/04 07:13:08;;;;;;;7.78;3.22;;;;;;;;;;4997607;28;20037;-65
2022/12/04 07:15:35;;;;;;;8.48;3.22;;;;;;;;;;4998183;28;20343;-65
2022/12/04 07:18:01;;;;;;;9.38;3.70;;;;;;;;;;4989560;28;20053;-65
2022/12/04 07:20:27;;;;;;;9.75;4.00;;;;;;;;;;4994566;28;20615;-65
2022/12/04 07:22:53;;;;;;;10.45;4.07;;;;;;;;;;4992293;28;20286;-64
2022/12/04 07:25:20;;;;;;;9.50;4.10;;;;;;;;;;4998012;28;20406;-65
2022/12/04 07:27:46;;;;;;;9.43;4.32;;;;;;;;;;4998994;28;20361;-65
2022/12/04 07:30:12;;;;;;;11.88;4.28;;;;;;;;;;5000952;28;20029;-65
2022/12/04 07:32:38;;;;;;;10.48;4.07;;;;;;;;;;5000828;28;20059;-65
2022/12/04 07:35:05;;;;;;;8.82;4.15;;;;;;;;;;4991480;28;20509;-64
2022/12/04 07:37:31;;;;;;;;;;;;;;;;;;4997005;28;20498;-64
2022/12/04 07:39:57;;;;;;;11.68;4.55;;;;;;;;;;4993864;28;20017;-65
2022/12/04 07:42:23;;;;;;;9.68;4.30;;;;;;;;;;4999408;28;20684;-64
2022/12/04 07:44:49;;;;;;;8.98;4.05;;;;;;;;;;4994988;28;20171;-66
2022/12/04 07:47:15;;;;;;;10.98;4.38;;;;;;;;;;4995014;28;20121;-66
2022/12/04 07:49:41;;;;;;;11.18;4.43;;;;;;;;;;4997604;28;20044;-66
2022/12/04 07:52:08;;;;;;;9.52;4.03;;;;;;;;;;4991369;28;20402;-66
2022/12/04 07:54:35;;;;;;;8.75;3.65;;;;;;;;;;4995712;28;20037;-66
2022/12/04 07:57:02;;;;;;;11.82;3.78;;;;;;;;;;4994246;28;20060;-67
2022/12/04 07:59:28;;;;;;;8.35;3.28;;;;;;;;;;4995762;28;20087;-66
2022/12/04 08:01:54;;;;;;;10.55;3.05;;;;;;;;;;4986982;28;20122;-66
2022/12/04 08:04:20;;;;;;;8.98;3.15;;;;;;;;;;4996619;28;20783;-66
2022/12/04 08:06:46;;;;;;;8.40;3.00;;;;;;;;;;4996186;28;20026;-66
2022/12/04 08:09:12;;;;;;;7.13;2.60;;;;;;;;;;4992642;28;21148;-66
2022/12/04 08:11:38;;;;;;;8.38;3.00;;;;;;;;;;4996970;28;20029;-65
2022/12/04 08:14:07;;;;;;;6.93;2.70;;;;;;;;;;4991457;28;20072;-65
2022/12/04 08:16:34;;;;;;;6.75;2.58;;;;;;;;;;4994086;28;20048;-64
2022/12/04 08:19:00;;;;;;;7.15;2.28;;;;;;;;;;4991699;28;20046;-64
2022/12/04 08:21:28;;;;;;;8.27;2.50;;;;;;;;;;4996932;28;20055;-65
2022/12/04 08:23:55;;;;;;;8.93;2.22;;;;;;;;;;4986962;28;20033;-64
2022/12/04 08:26:23;;;;;;;6.82;2.50;;;;;;;;;;4996792;28;20483;-65
2022/12/04 08:28:52;;;;;;;7.70;2.50;;;;;;;;;;4995705;28;20141;-64
2022/12/04 08:31:20;;;;;;;8.35;2.70;;;;;;;;;;4998358;28;20711;-66
2022/12/04 08:33:47;;;;;;;8.02;2.92;;;;;;;;;;4995937;28;20037;-64
2022/12/04 08:36:15;;;;;;;8.85;3.10;;;;;;;;;;4992063;28;20036;-65
2022/12/04 08:38:41;;;;;;;12.85;4.78;;;;;;;;;;4994830;28;20033;-65
2022/12/04 08:41:11;;;;;;;17.70;7.82;;;;;;;;;;4992687;28;21057;-65
2022/12/04 08:43:37;;;;;;;17.52;8.05;;;;;;;;;;4996071;28;20491;-65
2022/12/04 08:46:05;;;;;;;18.83;8.07;;;;;;;;;;4990629;28;20065;-65
2022/12/04 08:48:31;;;;;;;18.58;7.80;;;;;;;;;;4993323;28;20660;-65
2022/12/04 08:50:58;;;;;;;14.25;6.90;;;;;;;;;;4989062;28;20040;-66
2022/12/04 08:53:25;;;;;;;13.35;5.95;;;;;;;;;;4995334;28;20041;-65
2022/12/04 08:55:51;;;;;;;11.05;5.10;;;;;;;;;;4989578;28;20029;-65
2022/12/04 08:58:18;;;;;;;9.98;4.50;;;;;;;;;;4993973;28;20041;-65
2022/12/04 09:00:44;;;;;;;9.43;4.43;;;;;;;;;;4993960;28;20037;-65
2022/12/04 09:03:15;;;;;;;10.23;4.78;;;;;;;;;;4991627;28;20408;-65
2022/12/04 09:05:41;;;;;;;13.20;4.63;;;;;;;;;;5009147;28;20025;-65
2022/12/04 09:08:07;;;;;;;;;;;;;;;;;;5010305;28;20033;-65
2022/12/04 09:10:36;;;;;;;12.20;4.93;;;;;;;;;;4996223;28;20294;-65
2022/12/04 09:13:03;;;;;;;9.55;4.45;;;;;;;;;;4990766;28;20044;-66
2022/12/04 09:15:29;;;;;;;9.70;3.35;;;;;;;;;;4992557;28;20116;-65
2022/12/04 09:17:55;;;;;;;8.63;3.33;;;;;;;;;;4990872;28;20036;-64
2022/12/04 09:20:21;;;;;;;9.50;3.65;;;;;;;;;;4995162;28;20190;-65
2022/12/04 09:22:47;;;;;;;9.77;4.20;;;;;;;;;;4996304;28;20304;-65
2022/12/04 09:25:14;;;;;;;7.60;3.10;;;;;;;;;;4992001;28;20481;-64
2022/12/04 09:27:44;;;;;;;;;;;;;;;;;;4994253;28;20040;-64
2022/12/04 09:30:11;;;;;;;8.55;2.42;;;;;;;;;;5007391;28;19917;-65
2022/12/04 09:32:37;;;;;;;8.23;2.42;;;;;;;;;;4992498;28;20810;-65
2022/12/04 09:35:03;;;;;;;;;;;;;;;;;;4991972;28;20739;-64
2022/12/04 09:37:29;;;;;;;9.43;2.65;;;;;;;;;;4996287;28;20315;-65
2022/12/04 09:39:55;;;;;;;;;;;;;;;;;;4992845;28;20045;-65
2022/12/04 09:42:40;;;;;;;8.30;2.20;;;;;;;;;;4996432;28;19917;-64
2022/12/04 09:45:17;;;;;;;10.60;2.28;;;;;;;;;;4991496;28;20334;-64
2022/12/04 09:47:48;;;;;;;8.57;2.17;;;;;;;;;;4994001;28;20107;-64
2022/12/04 09:50:17;;;;;;;7.47;2.10;;;;;;;;;;4991119;28;20261;-64
2022/12/04 09:52:54;;;;;;;8.27;2.75;;;;;;;;;;5009950;28;20462;-64
2022/12/04 09:55:26;;;;;;;10.25;2.55;;;;;;;;;;4994855;28;20456;-65
2022/12/04 09:57:54;;;;;;;8.90;2.63;;;;;;;;;;4993916;28;20029;-65
2022/12/04 10:00:21;;;;;;;11.32;2.88;;;;;;;;;;4994927;28;20061;-64
2022/12/04 10:03:07;;;;;;;9.30;2.70;;;;;;;;;;5008406;28;20356;-65
2022/12/04 10:05:52;;;;;;;9.00;2.97;;;;;;;;;;4996968;28;20178;-65
2022/12/04 10:08:23;;;;;;;8.50;3.05;;;;;;;;;;4996289;28;20035;-65
2022/12/04 10:10:49;;;;;;;9.30;2.83;;;;;;;;;;4995027;28;20134;-64
2022/12/04 10:13:25;;;;;;;8.68;2.60;;;;;;;;;;4989268;28;20086;-64
2022/12/04 10:15:54;;;;;;;10.25;2.78;;;;;;;;;;4991120;28;20475;-64
2022/12/04 10:18:20;;;;;;;8.65;2.97;;;;;;;;;;4995649;28;20867;-65
2022/12/04 10:20:46;;;;;;;;;;;;;;;;;;4997867;28;20037;-65
2022/12/04 10:23:15;;;;;;;8.88;2.67;;;;;;;;;;4993936;28;19924;-65
2022/12/04 10:25:42;;;;;;;8.43;2.10;;;;;;;;;;4994108;28;20934;-64
2022/12/04 10:28:18;;;;;;;8.88;2.95;;;;;;;;;;4991412;28;20403;-63
2022/12/04 10:30:45;;;;;;;11.45;3.30;;;;;;;;;;4993427;28;20026;-63
2022/12/04 10:33:31;;;;;;;11.05;3.38;;;;;;;;;;4991888;28;20042;-64
2022/12/04 10:35:57;;;;;;;10.40;2.97;;;;;;;;;;4989862;28;20451;-65
2022/12/04 10:38:23;;;;;;;;;;;;;;;;;;4995422;28;20055;-65
2022/12/04 10:40:58;;;;;;;10.35;3.40;;;;;;;;;;4997293;28;19964;-67
2022/12/04 10:43:36;;;;;;;11.25;3.65;;;;;;;;;;4996860;28;20037;-66
2022/12/04 10:46:03;;;;;;;10.02;3.58;;;;;;;;;;4993898;28;20028;-67
2022/12/04 10:48:33;;;;;;;10.98;3.40;;;;;;;;;;4996175;28;20116;-66
2022/12/04 10:51:00;;;;;;;10.50;3.42;;;;;;;;;;4995172;28;21385;-66
2022/12/04 10:53:30;;;;;;;8.77;3.20;;;;;;;;;;4998486;28;20849;-65
2022/12/04 10:56:06;;;;;;;10.48;3.45;;;;;;;;;;4993722;28;20052;-66
2022/12/04 10:58:33;;;;;;;10.73;3.28;;;;;;;;;;4998552;28;20033;-66
2022/12/04 11:01:04;;;;;;;10.20;3.20;;;;;;;;;;4995654;28;20617;-66
2022/12/04 11:03:30;;;;;;;9.45;3.08;;;;;;;;;;4994141;28;20033;-66
2022/12/04 11:06:01;;;;;;;10.02;3.60;;;;;;;;;;4991310;28;20439;-68
2022/12/04 11:08:47;;;;;;;11.27;2.70;;;;;;;;;;4994419;28;20112;-66
2022/12/04 11:11:14;;;;;;;11.53;2.67;;;;;;;;;;4993595;28;20033;-71
2022/12/04 11:13:41;;;;;;;9.30;1.92;;;;;;;;;;4997460;28;20122;-66
2022/12/04 11:16:07;;;;;;;;;;;;;;;;;;4994860;28;20037;-66
2022/12/04 11:18:34;;;;;;;6.18;1.27;;;;;;;;;;4992089;28;20351;-66
2022/12/04 11:21:00;;;;;;;6.97;1.45;;;;;;;;;;4964373;28;20117;-66
2022/12/04 11:23:29;;;;;;;9.75;1.60;;;;;;;;;;4985462;28;20357;-66
2022/12/04 11:25:57;;;;;;;7.72;1.70;;;;;;;;;;4997271;28;20170;-66
2022/12/04 11:28:29;;;;;;;9.73;1.90;;;;;;;;;;5004518;28;20344;-67
2022/12/04 11:30:57;;;;;;;9.07;2.10;;;;;;;;;;5000885;28;20609;-65
2022/12/04 11:33:33;;;;;;;8.65;2.20;;;;;;;;;;5006012;28;20037;-65
2022/12/04 11:36:02;;;;;;;8.93;1.90;;;;;;;;;;4996545;28;20103;-66
2022/12/04 11:38:29;;;;;;;6.93;1.60;;;;;;;;;;5005749;28;20198;-66
2022/12/04 11:40:56;;;;;;;10.20;2.30;;;;;;;;;;4996756;28;20037;-66
2022/12/04 11:43:24;;;;;;;5.78;1.52;;;;;;;;;;5003298;28;20045;-65
2022/12/04 11:46:13;;;;;;;5.53;1.58;;;;;;;;;;5003379;28;20018;-65
2022/12/04 11:48:44;;;;;;;7.20;1.70;;;;;;;;;;4999596;28;20025;-66
2022/12/04 11:51:16;;;;;;;6.22;1.50;;;;;;;;;;4997303;28;20095;-66
2022/12/04 11:53:47;;;;;;;6.90;1.40;;;;;;;;;;5000776;28;20095;-64
2022/12/04 11:56:16;;;;;;;4.80;1.05;;;;;;;;;;4982575;28;20518;-66
2022/12/04 11:58:48;;;;;;;6.25;1.27;;;;;;;;;;4956700;28;20607;-65
2022/12/04 12:01:17;;;;;;;7.50;1.38;;;;;;;;;;4952266;28;20771;-64
2022/12/04 12:03:56;;;;;;;8.25;1.80;;;;;;;;;;4956029;28;20584;-65
2022/12/04 12:06:30;;;;;;;9.20;2.28;;;;;;;;;;4971569;28;20091;-65
2022/12/04 12:09:17;;;;;;;6.68;1.70;;;;;;;;;;4953236;28;20034;-67
2022/12/04 12:11:43;;;;;;;5.95;1.60;;;;;;;;;;4961147;28;20025;-64
2022/12/04 12:14:20;;;;;;;10.18;1.85;;;;;;;;;;4971700;28;20519;-65
2022/12/04 12:16:52;;;;;;;6.35;1.50;;;;;;;;;;4960203;28;20056;-65
2022/12/04 12:19:24;;;;;;;5.03;1.20;;;;;;;;;;4971534;28;20041;-65
2022/12/04 12:21:57;;;;;;;6.55;1.40;;;;;;;;;;4966137;28;20144;-65
2022/12/04 12:24:23;;;;;;;7.15;1.65;;;;;;;;;;4959656;28;20422;-65
2022/12/04 12:26:54;;;;;;;7.25;1.88;;;;;;;;;;4954981;28;20107;-65
2022/12/04 12:29:58;;;;;;;9.10;1.88;;;;;;;;;;4959122;28;20021;-66
2022/12/04 12:32:43;;;;;;;9.70;2.00;;;;;;;;;;4901416;28;20039;-65
2022/12/04 12:35:27;;;;;;;9.55;1.88;;;;;;;;;;4933928;28;21101;-65
2022/12/04 12:37:55;;;;;;;9.43;2.35;;;;;;;;;;4938543;28;20397;-65
2022/12/04 12:40:21;;;;;;;6.43;1.50;;;;;;;;;;4943424;28;20049;-65
2022/12/04 12:42:51;;;;;;;6.72;1.90;;;;;;;;;;4944172;28;20058;-66
2022/12/04 12:45:27;;;;;;;8.57;1.98;;;;;;;;;;4941198;28;20106;-66
2022/12/04 12:47:55;;;;;;;7.97;2.20;;;;;;;;;;4938063;28;20372;-65
2022/12/04 12:50:24;;;;;;;8.10;1.80;;;;;;;;;;4943573;28;20072;-67
2022/12/04 12:52:53;;;;;;;7.72;1.70;;;;;;;;;;4938945;28;20133;-65
2022/12/04 12:55:24;;;;;;;7.28;1.38;;;;;;;;;;4941974;28;20386;-66
2022/12/04 12:58:13;;;;;;;7.88;1.50;;;;;;;;;;4938865;28;20051;-66
2022/12/04 13:00:43;;;;;;;8.23;1.95;;;;;;;;;;4923338;28;20090;-66
2022/12/04 13:03:12;;;;;;;7.32;1.80;;;;;;;;;;4942333;28;20795;-64
2022/12/04 13:05:44;;;;;;;10.27;1.77;;;;;;;;;;4981077;28;20161;-64
2022/12/04 13:08:10;;;;;;;6.85;1.70;;;;;;;;;;4978703;28;20180;-65
2022/12/04 13:10:36;;;;;;;;;;;;;;;;;;4982500;28;20037;-65
2022/12/04 13:13:07;;;;;;;5.75;1.27;;;;;;;;;;4962698;28;20817;-66
2022/12/04 13:15:39;;;;;;;7.95;2.15;;;;;;;;;;4982366;28;20049;-65
2022/12/04 13:18:07;;;;;;;7.43;1.52;;;;;;;;;;4977893;28;20425;-65
2022/12/04 13:20:38;;;;;;;8.48;1.80;;;;;;;;;;4980868;28;20114;-66
2022/12/04 13:23:14;;;;;;;7.75;1.50;;;;;;;;;;4978671;28;20057;-66
2022/12/04 13:25:40;;;;;;;;;;;;;;;;;;4981852;28;21303;-65
2022/12/04 13:28:16;;;;;;;11.70;2.17;;;;;;;;;;4961574;28;19923;-65
2022/12/04 13:30:42;;;;;;;8.38;2.40;;;;;;;;;;4981303;28;20095;-65
2022/12/04 13:33:11;;;;;;;9.13;1.55;;;;;;;;;;4977690;28;20034;-66
2022/12/04 13:35:55;;;;;;;6.47;1.52;;;;;;;;;;4981948;28;20037;-65
2022/12/04 13:38:34;;;;;;;7.10;1.75;;;;;;;;;;4997507;28;20049;-65
2022/12/04 13:41:02;;;;;;;10.05;2.28;;;;;;;;;;5002214;28;20033;-66
2022/12/04 13:43:28;;;;;;;9.45;2.45;;;;;;;;;;4998439;28;20040;-66
2022/12/04 13:45:56;;;;;;;9.35;2.80;;;;;;;;;;4997087;28;20273;-65
2022/12/04 13:48:28;;;;;;;8.27;2.10;;;;;;;;;;5003069;28;20483;-65
2022/12/04 13:51:04;;;;;;;10.00;2.58;;;;;;;;;;4999147;28;20107;-65
2022/12/04 13:53:36;;;;;;;7.60;1.80;;;;;;;;;;5008822;28;20079;-66
2022/12/04 13:56:02;;;;;;;12.15;2.05;;;;;;;;;;5005471;28;20025;-66
2022/12/04 13:58:29;;;;;;;9.88;1.92;;;;;;;;;;5008223;28;20583;-66
2022/12/04 14:01:22;;;;;;;11.80;2.22;;;;;;;;;;5004950;28;20029;-66
2022/12/04 14:03:51;;;;;;;11.35;2.80;;;;;;;;;;5008686;28;20072;-66
2022/12/04 14:06:20;;;;;;;10.18;2.60;;;;;;;;;;5004537;28;20509;-66
2022/12/04 14:08:46;;;;;;;9.20;2.40;;;;;;;;;;5004938;28;20053;-66
2022/12/04 14:11:12;;;;;;;;;;;;;;;;;;5006392;28;20859;-66
2022/12/04 14:13:42;;;;;;;9.10;2.47;;;;;;;;;;5008798;28;20478;-66
2022/12/04 14:16:19;;;;;;;10.57;3.28;;;;;;;;;;5005378;28;20017;-66
2022/12/04 14:18:50;;;;;;;10.60;2.30;;;;;;;;;;5010633;28;20029;-66
2022/12/04 14:21:17;;;;;;;9.80;2.42;;;;;;;;;;5005401;28;20037;-66
2022/12/04 14:23:43;;;;;;;11.13;2.58;;;;;;;;;;5008034;28;20148;-65
2022/12/04 14:26:09;;;;;;;;;;;;;;;;;;5004307;28;21910;-66
2022/12/04 14:28:42;;;;;;;8.25;2.08;;;;;;;;;;5007471;28;19917;-65
2022/12/04 14:31:08;;;;;;;10.80;2.45;;;;;;;;;;5004861;28;20042;-66
2022/12/04 14:33:39;;;;;;;12.70;3.05;;;;;;;;;;5005195;28;20229;-66
2022/12/04 14:36:07;;;;;;;9.27;3.10;;;;;;;;;;5003910;28;20033;-66
2022/12/04 14:38:33;;;;;;;8.98;2.95;;;;;;;;;;5007093;28;20087;-65
2022/12/04 14:41:00;;;;;;;;;;;;;;;;;;5004946;28;20033;-66
2022/12/04 14:43:52;;;;;;;8.43;2.40;;;;;;;;;;5001700;28;19917;-65
2022/12/04 14:46:31;;;;;;;12.85;2.95;;;;;;;;;;5000354;28;20744;-67
2022/12/04 14:49:17;;;;;;;11.07;2.92;;;;;;;;;;5003535;28;20024;-65
2022/12/04 14:51:49;;;;;;;11.50;2.58;;;;;;;;;;5007155;28;20263;-66
2022/12/04 14:54:38;;;;;;;11.48;3.20;;;;;;;;;;5006747;28;20105;-66
2022/12/04 14:57:08;;;;;;;14.88;3.30;;;;;;;;;;5004256;28;20032;-67
2022/12/04 14:59:55;;;;;;;9.60;2.53;;;;;;;;;;5009537;28;20072;-67
2022/12/04 15:02:21;;;;;;;;;;;;;;;;;;5023785;28;20139;-67
2022/12/04 15:04:49;;;;;;;12.55;3.55;;;;;;;;;;5007112;28;20047;-66
2022/12/04 15:07:23;;;;;;;12.93;3.42;;;;;;;;;;5006858;28;20065;-67
2022/12/04 15:13:01;;;;;;;13.38;4.60;;;;;;;;;;4921782;28;20083;-67